Strona główna
METAR-TAF:

METAR-TAF

Lotnisko :

Łódź, Polska

Port lotniczy Łódź-Lublinek

Szerokość geograficzna: 51-43-19N, Długość geograficzna: 019-23-53E, wysokość: 184 m

Aktualna obserwacja pogody

Raport powstał 30 minut temu, godzina 19:00 UTC
Wiatr 2 kt z kierunków zmiennych
Temperatura 0°C
Wilgotność 74%
Ciśnienie 1027 hPa
Widzialność 10 km lub więcej
Przerywane chmury na wysokości 4100 ft

METAR: EPLL 181900Z VRB02KT 9999 BKN041 M00/M04 Q1027

czas: 20:30 (19:30 UTC)

Prognoza

Raport powstał 2 godziny i 0 minut temu, godzina 17:30 UTC
Prognoza ważna od 18 godzina 18 UTC do 19 godzina 18 UTC
Wiatr 4 kt od zachód
Widzialność 10 km lub więcej
Przerywane chmury na wysokości 3000 ft
Przejściowo
od 18 godzina 20 UTC do 19 godzina 07 UTC
Widzialność: 4000 m
zamglenie

TAF: EPLL 181730Z 1818/1918 27004KT 9999 BKN030 TEMPO 1820/1907 4000 BR

Obserwacja i prognoza pogody dla ponad 4000 lotnisk (raport METAR i TAF).

Dostępne stacje oznaczono żółtymi i czerwonymi punktami na mapie.

Najedź kursorem aby zobaczyć nazwę stacji.

Kliknij aby zobaczyć obserwacje i prognozy pogody.

Aby zmienić mapę: kliknij na zielony przycisk z czarnym krzyżykiem, aby powiększyć; na zielony przycisk z myślnikiem, aby pomniejszyć; na zielone strzałki, aby przejść do map sąsiednich.


METAR-TAF: